Accueil
METAR-TAF:

METAR-TAF

Aéroports :

Aéroport de Lübeck

Lübeck, Allemagne

latitude: 53-49N, longitude: 010-42E, altitude: 14 m

Observation

Le bulletin a été fait il y a 24 minutes, à 14:50 UTC
Vent 7 kt de nord-est, variant entre nord/nord-ouest et est
Température 26°C
Humidité 34%
Pression 1015 hPa
Visibilité 10 km ou plus
pas de nuages en-dessous de 1500 mètres et pas de cumulonimbus.

METAR: EDHL 021450Z 05007KT 330V090 CAVOK 26/09 Q1015

Heure: 17:14 (15:14 UTC)

Prévision

Le bulletin a été fait il y a 1 heure et 14 minutes, à 14:00 UTC
Prévision valable du 02 à 15 UTC au 02 à 21 UTC
Vent 3 kt de direction variable
Visibilité 10 km ou plus
pas de nuages en-dessous de 1500 mètres et pas de cumulonimbus.
Temporairement
du 02 à 15 UTC au 02 à 21 UTC
Vent 7 kt de est/nord-est

TAF: EDHL 021400Z 0215/0221 VRB03KT CAVOK TEMPO 0215/0221 07007KT

Observations et prévisions météorologiques de plus de 4000 aéroports (messages METAR et TAF).

Les stations disponibles sont représentées par des disques jaunes et rouges sur la carte.

Passer la souris dessus pour voir le nom de la station.

Cliquer dessus pour voir les observations et prévisions météorologiques.

Pour changer de carte: cliquez sur les boutons verts avec une croix noire pour zoomer, sur le bouton vert avec un tiret pour effectuer un zoom arrière, ou sur les flèches vertes pour les cartes adjacentes.


METAR-TAF: